createdAt,value
2018-09-04T00:00:22.979Z,407.70
2018-09-04T00:02:53.991Z,440.62
2018-09-04T00:05:27.032Z,429.77
2018-09-04T00:07:57.326Z,482.88
2018-09-04T00:10:28.463Z,428.20
2018-09-04T00:12:58.739Z,433.07
2018-09-04T00:15:34.018Z,501.70
2018-09-04T00:18:08.193Z,430.33
2018-09-04T00:20:38.896Z,515.47
2018-09-04T00:23:12.286Z,452.30
2018-09-04T00:25:43.354Z,491.20
2018-09-04T00:28:18.791Z,431.63
2018-09-04T00:30:49.388Z,442.55
2018-09-04T00:33:19.949Z,425.50
2018-09-04T00:35:52.727Z,502.10
2018-09-04T00:38:23.205Z,506.93
2018-09-04T00:40:53.478Z,501.22
2018-09-04T00:43:24.236Z,448.52
2018-09-04T00:45:54.631Z,486.32
2018-09-04T00:48:25.275Z,478.08
2018-09-04T00:50:55.924Z,469.55
2018-09-04T00:53:26.227Z,511.90
2018-09-04T00:55:56.747Z,512.10
2018-09-04T00:58:27.277Z,460.00
2018-09-04T01:00:57.739Z,467.12
2018-09-04T01:03:28.293Z,544.95
2018-09-04T01:05:59.539Z,481.43
2018-09-04T01:08:29.838Z,462.40
2018-09-04T01:11:00.308Z,473.55
2018-09-04T01:13:31.182Z,424.77
2018-09-04T01:16:02.122Z,439.97
2018-09-04T01:18:32.903Z,484.65
2018-09-04T01:21:04.060Z,510.05
2018-09-04T01:23:34.411Z,427.55
2018-09-04T01:26:05.205Z,431.27
2018-09-04T01:28:36.048Z,552.17
2018-09-04T01:31:06.348Z,508.60
2018-09-04T01:33:36.750Z,490.08
2018-09-04T01:36:07.115Z,500.62
2018-09-04T01:38:37.845Z,507.95
2018-09-04T01:41:08.400Z,439.57
2018-09-04T01:43:38.921Z,483.27
2018-09-04T01:46:09.298Z,555.98
2018-09-04T01:48:39.856Z,518.92
2018-09-04T01:51:10.261Z,477.60
2018-09-04T01:53:40.628Z,414.65
2018-09-04T01:56:11.315Z,442.03
2018-09-04T01:58:42.278Z,468.10
2018-09-04T02:01:14.290Z,472.52
2018-09-04T02:03:44.755Z,477.00
2018-09-04T02:06:15.304Z,482.17
2018-09-04T02:08:45.751Z,513.40
2018-09-04T02:11:16.770Z,501.37
2018-09-04T02:13:47.165Z,497.10
2018-09-04T02:16:17.719Z,500.30
2018-09-04T02:18:48.085Z,477.17
2018-09-04T02:21:18.415Z,500.48
2018-09-04T02:23:48.856Z,481.57
2018-09-04T02:26:19.342Z,467.85
2018-09-04T02:28:49.500Z,514.30
2018-09-04T02:31:20.032Z,452.67
2018-09-04T02:33:50.625Z,460.15
2018-09-04T02:36:20.860Z,508.20
2018-09-04T02:38:51.323Z,455.63
2018-09-04T02:41:22.136Z,487.05
2018-09-04T02:43:52.609Z,507.05
2018-09-04T02:46:23.003Z,459.55
2018-09-04T02:48:53.478Z,533.35
2018-09-04T02:51:23.895Z,529.65
2018-09-04T02:53:54.527Z,460.52
2018-09-04T02:56:25.307Z,464.30
2018-09-04T02:58:56.887Z,525.83
2018-09-04T03:01:28.208Z,445.73
2018-09-04T03:04:01.396Z,504.98
2018-09-04T03:06:32.000Z,472.07
2018-09-04T03:09:05.598Z,502.60
2018-09-04T03:11:36.164Z,483.90
2018-09-04T03:14:06.631Z,485.78
2018-09-04T03:16:37.750Z,437.00
2018-09-04T03:19:08.968Z,523.80
2018-09-04T03:21:39.357Z,478.62
2018-09-04T03:24:09.878Z,442.20
2018-09-04T03:26:40.278Z,479.92
2018-09-04T03:29:10.550Z,448.28
2018-09-04T03:31:41.042Z,454.85
2018-09-04T03:34:11.543Z,506.37
2018-09-04T03:36:42.221Z,501.37
2018-09-04T03:39:12.706Z,488.37
2018-09-04T03:41:43.112Z,428.90
2018-09-04T03:44:13.520Z,520.35
2018-09-04T03:46:44.015Z,488.63
2018-09-04T03:49:14.379Z,524.73
2018-09-04T03:51:44.729Z,437.00
2018-09-04T03:54:15.012Z,486.05
2018-09-04T03:56:45.755Z,483.35
2018-09-04T03:59:16.249Z,441.27
2018-09-04T04:01:46.649Z,420.38
2018-09-04T04:04:17.630Z,479.05
2018-09-04T04:06:48.344Z,452.60
2018-09-04T04:09:18.812Z,477.82
2018-09-04T04:11:49.347Z,447.85
2018-09-04T04:14:19.604Z,431.73
2018-09-04T04:16:50.321Z,460.70
2018-09-04T04:19:20.724Z,481.63
2018-09-04T04:21:51.008Z,430.77
2018-09-04T04:24:21.371Z,460.23
2018-09-04T04:26:51.794Z,453.98
2018-09-04T04:29:22.342Z,423.93
2018-09-04T04:31:52.739Z,475.25
2018-09-04T04:34:23.264Z,501.60
2018-09-04T04:36:54.353Z,445.10
2018-09-04T04:39:25.853Z,487.42
2018-09-04T04:41:56.291Z,559.15
2018-09-04T04:44:26.898Z,482.80
2018-09-04T04:47:12.770Z,426.80
2018-09-04T04:49:43.021Z,414.30
2018-09-04T04:52:21.419Z,442.55
2018-09-04T04:54:52.349Z,488.65
2018-09-04T04:57:22.706Z,491.20
2018-09-04T04:59:53.601Z,474.25
2018-09-04T05:02:24.113Z,491.42
2018-09-04T05:05:07.629Z,422.67
2018-09-04T05:07:46.785Z,440.80
2018-09-04T05:10:19.927Z,481.67
2018-09-04T05:12:50.411Z,456.52
2018-09-04T05:15:21.045Z,499.52
2018-09-04T05:17:51.546Z,469.40
2018-09-04T05:20:29.821Z,490.40
2018-09-04T05:23:01.146Z,426.93
2018-09-04T05:25:32.213Z,471.55
2018-09-04T05:28:03.656Z,442.37
2018-09-04T05:30:34.159Z,427.62
2018-09-04T05:33:11.843Z,390.75
2018-09-04T05:35:45.852Z,439.13
2018-09-04T05:38:16.224Z,435.55
2018-09-04T05:40:47.792Z,409.70
2018-09-04T05:43:23.684Z,395.35
2018-09-04T05:45:54.383Z,399.95
2018-09-04T05:48:24.821Z,388.07
2018-09-04T05:50:55.184Z,364.93
2018-09-04T05:53:25.681Z,425.30
2018-09-04T05:55:56.270Z,459.40
2018-09-04T05:58:26.447Z,456.50
2018-09-04T06:00:59.569Z,444.05
2018-09-04T06:03:29.936Z,427.80
2018-09-04T06:06:00.134Z,430.10
2018-09-04T06:08:30.776Z,486.58
2018-09-04T06:11:01.156Z,415.08
2018-09-04T06:13:31.950Z,446.70
2018-09-04T06:16:03.355Z,413.07
2018-09-04T06:18:39.852Z,452.28
2018-09-04T06:21:10.061Z,450.18
2018-09-04T06:23:40.467Z,425.45
2018-09-04T06:26:11.010Z,486.98
2018-09-04T06:28:42.176Z,470.57
2018-09-04T06:31:12.575Z,442.25
2018-09-04T06:33:43.005Z,447.70
2018-09-04T06:36:14.057Z,416.50
2018-09-04T06:38:44.588Z,422.63
2018-09-04T06:41:14.871Z,460.20
2018-09-04T06:43:45.207Z,434.25
2018-09-04T06:46:15.498Z,463.10
2018-09-04T06:48:45.858Z,431.60
2018-09-04T06:51:16.207Z,399.58
2018-09-04T06:53:46.623Z,474.20
2018-09-04T06:56:17.006Z,483.53
2018-09-04T06:58:47.833Z,516.08
2018-09-04T07:01:18.180Z,421.87
2018-09-04T07:03:48.826Z,477.37
2018-09-04T07:06:19.126Z,440.82
2018-09-04T07:08:49.499Z,441.60
2018-09-04T07:11:20.001Z,484.43
2018-09-04T07:13:50.745Z,468.07
2018-09-04T07:16:21.700Z,487.85
2018-09-04T07:18:52.200Z,535.87
2018-09-04T07:21:23.044Z,473.90
2018-09-04T07:23:53.523Z,459.63
2018-09-04T07:26:23.796Z,476.60
2018-09-04T07:28:54.765Z,458.92
2018-09-04T07:31:25.032Z,460.60
2018-09-04T07:33:55.449Z,520.88
2018-09-04T07:36:25.694Z,499.18
2018-09-04T07:38:56.120Z,565.92
2018-09-04T07:41:26.596Z,534.63
2018-09-04T07:43:57.077Z,569.28
2018-09-04T07:46:27.328Z,549.48
2018-09-04T07:48:57.560Z,597.75
2018-09-04T07:51:28.079Z,585.02
2018-09-04T07:53:58.358Z,484.65
2018-09-04T07:56:29.003Z,509.35
2018-09-04T07:58:59.731Z,541.50
2018-09-04T08:01:30.249Z,483.35
2018-09-04T08:04:00.855Z,533.00
2018-09-04T08:06:31.462Z,549.05
2018-09-04T08:09:01.850Z,491.77
2018-09-04T08:11:32.174Z,600.75
2018-09-04T08:14:02.560Z,568.77
2018-09-04T08:16:33.052Z,641.05
2018-09-04T08:19:04.089Z,566.50
2018-09-04T08:21:37.036Z,541.70
2018-09-04T08:24:09.156Z,659.33
2018-09-04T08:26:39.566Z,597.67
2018-09-04T08:29:09.863Z,599.80
2018-09-04T08:31:40.110Z,577.83
2018-09-04T08:34:10.415Z,689.83
2018-09-04T08:36:40.724Z,610.10
2018-09-04T08:39:11.021Z,648.97
2018-09-04T08:41:41.549Z,644.20
2018-09-04T08:44:12.395Z,623.25
2018-09-04T08:46:42.715Z,592.67
2018-09-04T08:49:13.102Z,590.70
2018-09-04T08:51:43.370Z,620.80
2018-09-04T08:54:13.644Z,695.60
2018-09-04T08:56:43.875Z,614.20
2018-09-04T08:59:14.549Z,715.55
2018-09-04T09:01:47.486Z,683.70
2018-09-04T09:04:20.097Z,754.42
2018-09-04T09:06:50.528Z,617.10
2018-09-04T09:09:20.795Z,687.72
2018-09-04T09:11:50.931Z,729.20
2018-09-04T09:14:21.489Z,878.17
2018-09-04T09:16:51.778Z,769.97
2018-09-04T09:19:22.099Z,752.75
2018-09-04T09:21:52.711Z,737.50
2018-09-04T09:24:23.001Z,677.90
2018-09-04T09:26:53.343Z,678.80
2018-09-04T09:29:24.181Z,750.98
2018-09-04T09:31:54.408Z,722.92
2018-09-04T09:34:25.196Z,666.17
2018-09-04T09:36:55.755Z,736.38
2018-09-04T09:39:26.860Z,751.58
2018-09-04T09:42:14.055Z,715.85
2018-09-04T09:44:46.868Z,722.95
2018-09-04T09:47:17.399Z,764.02
2018-09-04T09:49:48.506Z,770.02
2018-09-04T09:52:19.091Z,712.38
2018-09-04T09:54:49.663Z,743.40
2018-09-04T09:57:20.015Z,759.95
2018-09-04T09:59:51.257Z,753.58
2018-09-04T10:02:25.543Z,779.27
2018-09-04T10:04:56.105Z,830.57
2018-09-04T10:07:26.589Z,805.93
2018-09-04T10:09:57.302Z,855.27
2018-09-04T10:12:28.203Z,866.25
2018-09-04T10:14:59.130Z,784.98
2018-09-04T10:17:29.728Z,837.65
2018-09-04T10:20:00.238Z,878.37
2018-09-04T10:22:30.729Z,753.90
2018-09-04T10:25:01.494Z,824.77
2018-09-04T10:27:32.432Z,886.85
2018-09-04T10:30:02.926Z,845.12
2018-09-04T10:32:33.375Z,863.05
2018-09-04T10:35:03.912Z,841.42
2018-09-04T10:37:34.408Z,841.32
2018-09-04T10:40:11.287Z,965.50
2018-09-04T10:42:42.130Z,824.50
2018-09-04T10:45:17.237Z,832.90
2018-09-04T10:47:47.680Z,841.45
2018-09-04T10:50:17.936Z,873.58
2018-09-04T10:52:48.413Z,850.30
2018-09-04T10:55:18.937Z,865.32
2018-09-04T10:57:49.161Z,914.67
2018-09-04T11:00:22.373Z,780.98
2018-09-04T11:02:52.975Z,739.50
2018-09-04T11:05:25.985Z,712.27
2018-09-04T11:07:56.319Z,696.77
2018-09-04T11:10:27.016Z,696.00
2018-09-04T11:12:57.621Z,758.62
2018-09-04T11:15:29.465Z,737.55
2018-09-04T11:18:01.695Z,700.38
2018-09-04T11:20:32.553Z,698.50
2018-09-04T11:23:04.556Z,771.87
2018-09-04T11:25:35.013Z,759.42
2018-09-04T11:28:07.814Z,717.22
2018-09-04T11:30:38.761Z,738.25
2018-09-04T11:33:11.032Z,830.27
2018-09-04T11:35:41.515Z,792.50
2018-09-04T11:38:13.313Z,777.33
2018-09-04T11:40:43.756Z,696.12
2018-09-04T11:43:14.533Z,796.92
2018-09-04T11:45:45.019Z,786.80
2018-09-04T11:48:18.495Z,802.58
2018-09-04T11:50:49.020Z,918.17
2018-09-04T11:53:19.556Z,798.75
2018-09-04T11:55:49.878Z,885.25
2018-09-04T11:58:20.175Z,854.05
2018-09-04T12:00:51.468Z,725.50
2018-09-04T12:03:21.942Z,807.47
2018-09-04T12:05:52.450Z,822.48
2018-09-04T12:08:22.754Z,864.20
2018-09-04T12:10:53.208Z,855.08
2018-09-04T12:13:28.412Z,815.15
2018-09-04T12:15:58.854Z,695.95
2018-09-04T12:18:29.768Z,773.88
2018-09-04T12:21:02.619Z,768.87
2018-09-04T12:23:32.999Z,775.65
2018-09-04T12:26:04.981Z,704.77
2018-09-04T12:28:35.322Z,720.05
2018-09-04T12:31:06.503Z,812.35
2018-09-04T12:33:36.750Z,757.33
2018-09-04T12:36:08.079Z,792.10
2018-09-04T12:38:40.317Z,790.10
2018-09-04T12:41:16.549Z,760.73
2018-09-04T12:43:47.019Z,765.75
2018-09-04T12:46:17.415Z,872.17
2018-09-04T12:48:51.828Z,797.05
2018-09-04T12:51:22.442Z,793.75
2018-09-04T12:53:52.782Z,804.87
2018-09-04T12:56:23.151Z,876.37
2018-09-04T12:58:53.914Z,795.00
2018-09-04T13:01:24.218Z,884.10
2018-09-04T13:03:54.409Z,813.83
2018-09-04T13:06:24.903Z,855.42
2018-09-04T13:08:55.295Z,768.00
2018-09-04T13:11:25.527Z,859.95
2018-09-04T13:13:55.709Z,829.83
2018-09-04T13:16:26.098Z,845.25
2018-09-04T13:18:56.556Z,854.65
2018-09-04T13:21:27.324Z,849.30
2018-09-04T13:23:57.781Z,823.42
2018-09-04T13:26:29.584Z,892.88
2018-09-04T13:29:00.008Z,843.05
2018-09-04T13:31:30.551Z,824.42
2018-09-04T13:34:00.817Z,928.60
2018-09-04T13:36:31.213Z,800.02
2018-09-04T13:39:01.987Z,845.50
2018-09-04T13:41:34.156Z,820.30
2018-09-04T13:44:04.685Z,874.73
2018-09-04T13:46:35.195Z,930.48
2018-09-04T13:49:06.694Z,828.65
2018-09-04T13:51:37.794Z,901.65
2018-09-04T13:54:08.121Z,910.73
2018-09-04T13:56:39.347Z,863.70
2018-09-04T13:59:09.646Z,856.35
2018-09-04T14:01:41.450Z,842.47
2018-09-04T14:04:12.005Z,877.33
2018-09-04T14:06:42.442Z,885.35
2018-09-04T14:09:12.784Z,812.33
2018-09-04T14:11:43.399Z,859.00
2018-09-04T14:14:14.901Z,846.00
2018-09-04T14:16:45.478Z,877.08
2018-09-04T14:19:17.179Z,904.50
2018-09-04T14:21:48.008Z,948.50
2018-09-04T14:24:18.264Z,953.25
2018-09-04T14:26:48.781Z,867.90
2018-09-04T14:29:53.159Z,991.45
2018-09-04T14:31:49.361Z,968.73
2018-09-04T14:34:19.760Z,958.95
2018-09-04T14:36:51.799Z,832.70
2018-09-04T14:39:24.489Z,913.90
2018-09-04T14:41:54.825Z,909.25
2018-09-04T14:44:25.880Z,856.02
2018-09-04T14:46:56.854Z,867.47
2018-09-04T14:49:27.067Z,846.57
2018-09-04T14:51:57.396Z,946.97
2018-09-04T14:54:27.754Z,927.75
2018-09-04T14:56:58.763Z,874.80
2018-09-04T14:59:29.163Z,900.05
2018-09-04T15:01:59.526Z,867.98
2018-09-04T15:04:30.257Z,872.80
2018-09-04T15:07:01.726Z,851.80
2018-09-04T15:09:32.095Z,908.83
2018-09-04T15:12:04.250Z,913.67
2018-09-04T15:14:34.692Z,862.52
2018-09-04T15:17:05.875Z,860.43
2018-09-04T15:19:36.352Z,822.23
2018-09-04T15:22:08.019Z,827.33
2018-09-04T15:24:38.353Z,874.80
2018-09-04T15:27:08.554Z,878.37
2018-09-04T15:29:39.126Z,887.30
2018-09-04T15:32:09.758Z,880.45
2018-09-04T15:34:40.939Z,888.05
2018-09-04T15:37:14.596Z,829.92
2018-09-04T15:39:45.352Z,839.75
2018-09-04T15:42:16.051Z,888.48
2018-09-04T15:44:46.378Z,961.85
2018-09-04T15:47:16.649Z,827.70
2018-09-04T15:49:47.763Z,808.02
2018-09-04T15:52:20.572Z,880.35
2018-09-04T15:54:52.518Z,802.28
2018-09-04T15:57:22.695Z,800.38
2018-09-04T15:59:53.577Z,895.95
2018-09-04T16:02:24.655Z,906.00
2018-09-04T16:04:55.016Z,926.55
2018-09-04T16:07:25.228Z,913.30
2018-09-04T16:09:55.772Z,878.45
2018-09-04T16:12:26.364Z,854.40
2018-09-04T16:14:56.608Z,865.12
2018-09-04T16:17:26.925Z,787.62
2018-09-04T16:20:02.851Z,783.12
2018-09-04T16:22:34.870Z,801.02
2018-09-04T16:25:10.956Z,857.67
2018-09-04T16:27:42.421Z,841.40
2018-09-04T16:30:14.189Z,743.37
2018-09-04T16:32:44.721Z,698.15
2018-09-04T16:35:17.489Z,777.70
2018-09-04T16:37:48.509Z,705.22
2018-09-04T16:40:20.198Z,736.20
2018-09-04T16:42:50.756Z,707.05
2018-09-04T16:45:22.553Z,690.73
2018-09-04T16:47:54.134Z,757.10
2018-09-04T16:50:26.273Z,744.45
2018-09-04T16:52:56.969Z,744.30
2018-09-04T16:55:30.346Z,744.83
2018-09-04T16:58:01.116Z,828.58
2018-09-04T17:00:32.117Z,804.35
2018-09-04T17:03:02.634Z,725.02
2018-09-04T17:05:39.921Z,720.65
2018-09-04T17:08:24.752Z,750.70
2018-09-04T17:10:55.379Z,741.50
2018-09-04T17:13:25.777Z,807.70
2018-09-04T17:15:59.738Z,740.90
2018-09-04T17:18:39.706Z,733.85
2018-09-04T17:21:11.696Z,692.87
2018-09-04T17:23:41.940Z,694.40
2018-09-04T17:26:12.570Z,742.08
2018-09-04T17:28:42.848Z,753.30
2018-09-04T17:31:24.062Z,696.40
2018-09-04T17:33:55.024Z,672.17
2018-09-04T17:36:26.257Z,798.75
2018-09-04T17:38:56.469Z,695.30
2018-09-04T17:41:26.722Z,707.02
2018-09-04T17:43:57.979Z,791.17
2018-09-04T17:46:28.138Z,718.73
2018-09-04T17:48:58.363Z,693.05
2018-09-04T17:51:31.134Z,666.55
2018-09-04T17:54:02.119Z,652.28
2018-09-04T17:56:32.436Z,684.30
2018-09-04T17:59:03.609Z,640.40
2018-09-04T18:01:34.107Z,691.88
2018-09-04T18:04:10.672Z,728.75
2018-09-04T18:06:40.752Z,737.10
2018-09-04T18:09:14.908Z,615.62
2018-09-04T18:11:45.607Z,725.85
2018-09-04T18:14:15.956Z,691.80
2018-09-04T18:16:46.246Z,618.35
2018-09-04T18:19:16.575Z,712.05
2018-09-04T18:21:47.072Z,635.73
2018-09-04T18:24:18.192Z,624.50
2018-09-04T18:26:52.431Z,667.48
2018-09-04T18:29:22.867Z,661.85
2018-09-04T18:31:53.268Z,575.65
2018-09-04T18:34:23.643Z,577.35
2018-09-04T18:36:53.816Z,636.58
2018-09-04T18:39:23.944Z,629.55
2018-09-04T18:41:54.265Z,575.80
2018-09-04T18:44:24.649Z,586.77
2018-09-04T18:46:56.882Z,557.17
2018-09-04T18:49:27.761Z,626.33
2018-09-04T18:51:58.118Z,538.60
2018-09-04T18:54:29.238Z,547.65
2018-09-04T18:57:00.455Z,508.50
2018-09-04T18:59:32.152Z,534.98
2018-09-04T19:02:03.614Z,550.67
2018-09-04T19:04:34.010Z,532.67
2018-09-04T19:07:04.288Z,610.65
2018-09-04T19:09:34.641Z,551.00
2018-09-04T19:12:06.272Z,482.08
2018-09-04T19:14:36.604Z,499.68
2018-09-04T19:17:07.021Z,631.90
2018-09-04T19:19:37.706Z,539.92
2018-09-04T19:22:08.459Z,483.85
2018-09-04T19:24:39.581Z,515.83
2018-09-04T19:27:10.091Z,508.83
2018-09-04T19:29:40.357Z,484.52
2018-09-04T19:32:10.935Z,506.80
2018-09-04T19:34:41.397Z,502.15
2018-09-04T19:37:11.911Z,546.58
2018-09-04T19:39:42.457Z,438.75
2018-09-04T19:42:56.393Z,481.37
2018-09-04T19:45:29.318Z,462.38
2018-09-04T19:47:59.815Z,483.87
2018-09-04T19:50:32.705Z,416.38
2018-09-04T19:53:05.662Z,453.88
2018-09-04T19:55:36.143Z,438.68
2018-09-04T19:58:07.367Z,494.62
2018-09-04T20:00:38.715Z,443.65
2018-09-04T20:03:13.031Z,424.95
2018-09-04T20:05:43.713Z,432.35
2018-09-04T20:08:14.448Z,438.98
2018-09-04T20:10:45.036Z,476.70
2018-09-04T20:13:15.676Z,513.87
2018-09-04T20:15:46.253Z,453.92
2018-09-04T20:18:16.567Z,428.75
2018-09-04T20:20:48.071Z,428.70
2018-09-04T20:23:19.026Z,428.08
2018-09-04T20:25:49.318Z,413.52
2018-09-04T20:28:19.947Z,401.43
2018-09-04T20:30:50.318Z,391.10
2018-09-04T20:33:20.593Z,403.73
2018-09-04T20:35:51.295Z,439.27
2018-09-04T20:38:21.700Z,441.30
2018-09-04T20:40:52.000Z,454.72
2018-09-04T20:43:22.328Z,442.15
2018-09-04T20:45:52.613Z,455.95
2018-09-04T20:48:23.090Z,423.47
2018-09-04T20:50:53.475Z,405.80
2018-09-04T20:53:24.137Z,488.93
2018-09-04T20:55:54.526Z,413.80
2018-09-04T20:58:35.523Z,469.35
2018-09-04T21:01:16.473Z,458.57
2018-09-04T21:03:57.500Z,449.38
2018-09-04T21:06:38.791Z,429.40
2018-09-04T21:09:24.258Z,359.77
2018-09-04T21:11:54.643Z,406.90
2018-09-04T21:14:25.696Z,413.85
2018-09-04T21:16:56.176Z,403.52
2018-09-04T21:19:28.324Z,352.10
2018-09-04T21:21:58.748Z,336.65
2018-09-04T21:24:28.949Z,415.52
2018-09-04T21:26:59.433Z,429.77
2018-09-04T21:29:30.583Z,404.50
2018-09-04T21:32:02.969Z,371.70
2018-09-04T21:34:34.826Z,405.30
2018-09-04T21:37:06.441Z,414.17
2018-09-04T21:39:37.557Z,418.10
2018-09-04T21:42:10.763Z,430.75
2018-09-04T21:44:43.007Z,427.78
2018-09-04T21:47:17.524Z,378.25
2018-09-04T21:49:53.739Z,400.35
2018-09-04T21:52:32.697Z,431.05
2018-09-04T21:55:03.575Z,401.02
2018-09-04T21:57:38.564Z,443.87
2018-09-04T22:00:13.378Z,377.43
2018-09-04T22:02:45.175Z,439.65
2018-09-04T22:05:21.421Z,450.18
2018-09-04T22:07:53.260Z,455.35
2018-09-04T22:10:28.490Z,479.68
2018-09-04T22:12:58.906Z,403.15
2018-09-04T22:15:29.064Z,444.90
2018-09-04T22:17:59.319Z,388.87
2018-09-04T22:20:33.584Z,439.80
2018-09-04T22:23:05.924Z,430.48
2018-09-04T22:25:38.194Z,405.33
2018-09-04T22:28:11.806Z,413.93
2018-09-04T22:30:43.476Z,375.82
2018-09-04T22:33:16.232Z,429.38
2018-09-04T22:35:47.114Z,328.55
2018-09-04T22:38:19.482Z,424.20
2018-09-04T22:40:50.864Z,382.35
2018-09-04T22:43:22.284Z,390.52
2018-09-04T22:45:53.641Z,339.63
2018-09-04T22:48:25.029Z,361.00
2018-09-04T22:51:01.883Z,358.80
2018-09-04T22:56:31.018Z,375.55
2018-09-04T22:59:01.426Z,399.70
2018-09-04T23:01:32.340Z,340.87
2018-09-04T23:04:03.215Z,362.10
2018-09-04T23:06:34.457Z,340.65
2018-09-04T23:09:06.918Z,354.13
2018-09-04T23:11:38.205Z,372.63
2018-09-04T23:14:09.394Z,331.90
2018-09-04T23:16:39.899Z,347.67
2018-09-04T23:19:11.687Z,379.87
2018-09-04T23:21:42.461Z,331.73
2018-09-04T23:24:12.943Z,358.65
2018-09-04T23:26:43.498Z,393.23
2018-09-04T23:29:13.821Z,404.77
2018-09-04T23:31:44.150Z,343.15
2018-09-04T23:34:14.545Z,321.57
2018-09-04T23:36:44.886Z,333.65
2018-09-04T23:39:15.234Z,359.73
2018-09-04T23:41:45.705Z,339.90
2018-09-04T23:44:16.388Z,405.48
2018-09-04T23:46:46.666Z,382.50
2018-09-04T23:49:17.200Z,371.60
2018-09-04T23:51:47.471Z,344.65
2018-09-04T23:54:17.785Z,373.07
2018-09-04T23:56:48.217Z,377.22
2018-09-04T23:59:18.350Z,388.95
